createdAt,value
2023-01-03T00:00:57.119Z,19.63
2023-01-03T00:03:26.685Z,20.20
2023-01-03T00:06:01.483Z,20.17
2023-01-03T00:08:34.068Z,21.40
2023-01-03T00:11:02.139Z,19.57
2023-01-03T00:13:29.198Z,19.50
2023-01-03T00:16:00.415Z,18.93
2023-01-03T00:18:28.534Z,21.13
2023-01-03T00:21:04.652Z,19.43
2023-01-03T00:23:35.899Z,20.80
2023-01-03T00:26:10.229Z,19.23
2023-01-03T00:28:41.089Z,18.70
2023-01-03T00:31:09.702Z,20.37
2023-01-03T00:33:38.745Z,19.37
2023-01-03T00:36:10.852Z,19.77
2023-01-03T00:38:39.697Z,18.90
2023-01-03T00:41:09.376Z,19.57
2023-01-03T00:43:38.442Z,19.07
2023-01-03T00:46:07.748Z,19.90
2023-01-03T00:48:38.578Z,19.70
2023-01-03T00:51:09.309Z,20.03
2023-01-03T00:53:38.753Z,19.80
2023-01-03T00:56:08.319Z,20.37
2023-01-03T00:58:39.243Z,19.97
2023-01-03T01:01:10.239Z,19.50
2023-01-03T01:03:40.467Z,19.80
2023-01-03T01:06:22.249Z,19.83
2023-01-03T01:08:52.053Z,21.93
2023-01-03T01:11:23.802Z,21.27
2023-01-03T01:13:52.372Z,20.77
2023-01-03T01:16:24.629Z,21.57
2023-01-03T01:18:54.607Z,22.23
2023-01-03T01:21:29.043Z,22.20
2023-01-03T01:24:00.189Z,21.40
2023-01-03T01:26:30.598Z,21.13
2023-01-03T01:28:58.843Z,21.23
2023-01-03T01:31:28.770Z,22.40
2023-01-03T01:33:58.408Z,22.43
2023-01-03T01:36:30.399Z,22.83
2023-01-03T01:39:03.161Z,23.27
2023-01-03T01:41:51.877Z,24.03
2023-01-03T01:44:46.831Z,23.83
2023-01-03T01:47:21.432Z,25.50
2023-01-03T01:49:54.193Z,26.47
2023-01-03T01:52:25.039Z,26.07
2023-01-03T01:54:59.754Z,26.10
2023-01-03T01:57:28.626Z,24.00
2023-01-03T01:59:58.843Z,23.37
2023-01-03T02:02:28.504Z,22.60
2023-01-03T02:04:57.959Z,22.13
2023-01-03T02:07:34.335Z,21.93
2023-01-03T02:10:03.064Z,21.50
2023-01-03T02:12:57.026Z,24.60
2023-01-03T02:15:36.618Z,24.07
2023-01-03T02:18:21.735Z,23.80
2023-01-03T02:21:19.990Z,24.90
2023-01-03T02:24:15.037Z,33.63
2023-01-03T02:27:02.349Z,29.20
2023-01-03T02:30:05.512Z,25.63
2023-01-03T02:32:44.281Z,25.17
2023-01-03T02:35:22.997Z,25.63
2023-01-03T02:37:57.379Z,26.87
2023-01-03T02:40:35.832Z,30.17
2023-01-03T02:43:10.288Z,24.97
2023-01-03T02:46:00.225Z,32.37
2023-01-03T02:48:38.947Z,32.23
2023-01-03T02:51:12.808Z,42.87
2023-01-03T02:53:45.337Z,34.47
2023-01-03T02:56:16.970Z,37.27
2023-01-03T02:58:49.601Z,33.77
2023-01-03T03:01:19.988Z,30.57
2023-01-03T03:03:53.744Z,37.90
2023-01-03T03:06:28.917Z,31.23
2023-01-03T03:08:57.177Z,34.27
2023-01-03T03:11:46.597Z,30.33
2023-01-03T03:14:22.526Z,28.90
2023-01-03T03:16:53.721Z,28.30
2023-01-03T03:19:47.188Z,27.70
2023-01-03T03:22:48.577Z,29.67
2023-01-03T03:25:24.441Z,29.27
2023-01-03T03:28:12.961Z,30.03
2023-01-03T03:30:43.414Z,29.43
2023-01-03T03:33:15.122Z,32.20
2023-01-03T03:35:48.790Z,27.17
2023-01-03T03:38:24.541Z,27.93
2023-01-03T03:41:29.384Z,26.87
2023-01-03T03:44:23.312Z,27.23
2023-01-03T03:47:04.118Z,30.40
2023-01-03T03:49:41.173Z,34.10
2023-01-03T03:52:16.300Z,28.53
2023-01-03T03:54:52.063Z,32.77
2023-01-03T03:57:26.100Z,29.50
2023-01-03T03:59:58.511Z,31.17
2023-01-03T04:02:29.350Z,31.53
2023-01-03T04:05:02.349Z,33.37
2023-01-03T04:07:32.005Z,32.73
2023-01-03T04:10:03.002Z,32.10
2023-01-03T04:12:31.192Z,35.43
2023-01-03T04:14:59.399Z,36.23
2023-01-03T04:17:27.540Z,37.73
2023-01-03T04:19:55.713Z,35.30
2023-01-03T04:22:23.846Z,34.77
2023-01-03T04:24:56.827Z,36.80
2023-01-03T04:27:26.386Z,35.23
2023-01-03T04:29:54.639Z,36.10
2023-01-03T04:32:22.949Z,34.80
2023-01-03T04:34:54.166Z,37.80
2023-01-03T04:37:22.495Z,39.73
2023-01-03T04:39:50.710Z,39.00
2023-01-03T04:42:39.042Z,36.30
2023-01-03T04:45:12.834Z,39.37
2023-01-03T04:47:41.301Z,33.67
2023-01-03T04:50:11.016Z,37.00
2023-01-03T04:52:39.748Z,36.97
2023-01-03T04:55:09.711Z,37.60
2023-01-03T04:57:41.572Z,36.80
2023-01-03T05:00:11.954Z,37.23
2023-01-03T05:02:40.657Z,36.67
2023-01-03T05:05:12.577Z,39.93
2023-01-03T05:07:43.899Z,35.03
2023-01-03T05:10:12.338Z,35.87
2023-01-03T05:12:41.920Z,37.73
2023-01-03T05:15:11.156Z,41.10
2023-01-03T05:17:39.229Z,39.43
2023-01-03T05:20:25.678Z,34.00
2023-01-03T05:23:11.037Z,37.30
2023-01-03T05:25:51.500Z,37.33
2023-01-03T05:28:24.057Z,33.77
2023-01-03T05:30:52.312Z,35.30
2023-01-03T05:33:22.448Z,35.30
2023-01-03T05:35:53.498Z,34.17
2023-01-03T05:38:22.562Z,40.20
2023-01-03T05:40:51.028Z,42.07
2023-01-03T05:43:20.701Z,36.30
2023-01-03T05:45:52.779Z,32.87
2023-01-03T05:48:24.228Z,38.20
2023-01-03T05:50:52.349Z,34.23
2023-01-03T05:53:21.577Z,33.23
2023-01-03T05:55:49.773Z,33.77
2023-01-03T05:58:17.913Z,34.63
2023-01-03T06:00:47.553Z,33.57
2023-01-03T06:03:15.895Z,35.17
2023-01-03T06:05:50.124Z,34.57
2023-01-03T06:08:20.794Z,36.13
2023-01-03T06:10:49.001Z,33.17
2023-01-03T06:13:17.183Z,33.53
2023-01-03T06:16:05.527Z,34.70
2023-01-03T06:18:34.985Z,32.27
2023-01-03T06:21:04.156Z,38.67
2023-01-03T06:23:32.255Z,34.80
2023-01-03T06:26:04.407Z,31.97
2023-01-03T06:28:33.054Z,38.67
2023-01-03T06:31:01.491Z,34.20
2023-01-03T06:33:29.616Z,34.37
2023-01-03T06:36:02.750Z,39.97
2023-01-03T06:38:32.852Z,34.03
2023-01-03T06:41:01.282Z,33.67
2023-01-03T06:43:31.716Z,31.40
2023-01-03T06:46:18.816Z,31.20
2023-01-03T06:49:05.147Z,32.23
2023-01-03T06:52:08.216Z,31.97
2023-01-03T06:54:37.701Z,26.77
2023-01-03T06:57:09.022Z,26.53
2023-01-03T06:59:36.984Z,27.27
2023-01-03T07:02:07.058Z,26.70
2023-01-03T07:04:35.207Z,26.47
2023-01-03T07:07:08.941Z,28.43
2023-01-03T07:09:39.160Z,24.70
2023-01-03T07:12:21.211Z,25.00
2023-01-03T07:14:49.277Z,24.83
2023-01-03T07:17:18.036Z,26.23
2023-01-03T07:19:49.601Z,27.27
2023-01-03T07:22:19.262Z,28.83
2023-01-03T07:24:47.386Z,26.30
2023-01-03T07:27:15.607Z,25.07
2023-01-03T07:29:43.638Z,27.97
2023-01-03T07:32:11.825Z,26.27
2023-01-03T07:34:39.867Z,26.10
2023-01-03T07:37:08.925Z,27.90
2023-01-03T07:39:41.144Z,26.53
2023-01-03T07:42:27.201Z,27.33
2023-01-03T07:45:05.456Z,30.00
2023-01-03T07:47:33.762Z,27.87
2023-01-03T07:50:02.145Z,27.73
2023-01-03T07:52:32.182Z,31.17
2023-01-03T07:55:02.060Z,27.23
2023-01-03T07:57:33.342Z,27.83
2023-01-03T08:00:04.562Z,32.37
2023-01-03T08:02:32.856Z,27.87
2023-01-03T08:05:04.704Z,27.50
2023-01-03T08:07:33.083Z,27.00
2023-01-03T08:10:19.936Z,29.90
2023-01-03T08:13:05.332Z,30.93
2023-01-03T08:15:33.660Z,29.87
2023-01-03T08:18:04.107Z,30.13
2023-01-03T08:20:32.437Z,29.77
2023-01-03T08:23:02.681Z,28.90
2023-01-03T08:25:34.779Z,28.10
2023-01-03T08:28:03.287Z,27.70
2023-01-03T08:30:32.255Z,29.67
2023-01-03T08:33:10.475Z,28.63
2023-01-03T08:35:40.697Z,29.10
2023-01-03T08:38:15.334Z,32.60
2023-01-03T08:40:47.832Z,31.77
2023-01-03T08:43:19.305Z,29.83
2023-01-03T08:45:49.115Z,33.53
2023-01-03T08:48:20.257Z,29.30
2023-01-03T08:50:49.976Z,28.73
2023-01-03T08:53:23.247Z,31.33
2023-01-03T08:55:52.729Z,30.57
2023-01-03T08:58:21.246Z,31.63
2023-01-03T09:00:49.479Z,30.57
2023-01-03T09:03:18.304Z,31.50
2023-01-03T09:05:46.648Z,34.90
2023-01-03T09:08:15.955Z,35.87
2023-01-03T09:10:47.490Z,32.03
2023-01-03T09:13:23.041Z,31.58
2023-01-03T09:15:54.280Z,32.37
2023-01-03T09:18:22.691Z,30.90
2023-01-03T09:20:52.998Z,34.97
2023-01-03T09:23:21.282Z,33.75
2023-01-03T09:25:53.727Z,34.10
2023-01-03T09:28:23.767Z,34.43
2023-01-03T09:30:51.999Z,36.00
2023-01-03T09:33:20.343Z,37.10
2023-01-03T09:35:50.650Z,29.15
2023-01-03T09:38:18.965Z,32.08
2023-01-03T09:40:50.462Z,32.38
2023-01-03T09:43:25.425Z,30.88
2023-01-03T09:45:58.671Z,34.20
2023-01-03T09:48:31.683Z,31.83
2023-01-03T09:51:21.085Z,32.95
2023-01-03T09:54:05.822Z,33.23
2023-01-03T09:56:51.360Z,32.40
2023-01-03T09:59:36.889Z,41.22
2023-01-03T10:02:37.923Z,32.38
2023-01-03T10:05:21.885Z,31.63
2023-01-03T10:08:03.452Z,33.83
2023-01-03T10:10:38.425Z,32.70
2023-01-03T10:13:20.282Z,34.30
2023-01-03T10:16:00.099Z,32.72
2023-01-03T10:19:00.229Z,37.47
2023-01-03T10:21:37.669Z,35.72
2023-01-03T10:24:18.927Z,34.85
2023-01-03T10:26:49.680Z,33.50
2023-01-03T10:29:20.114Z,36.20
2023-01-03T10:32:07.012Z,31.25
2023-01-03T10:34:39.054Z,29.40
2023-01-03T10:37:20.191Z,35.25
2023-01-03T10:39:50.067Z,36.58
2023-01-03T10:42:19.971Z,38.35
2023-01-03T10:45:02.708Z,36.83
2023-01-03T10:47:31.001Z,35.60
2023-01-03T10:50:06.648Z,33.55
2023-01-03T10:52:38.649Z,39.05
2023-01-03T10:55:14.432Z,30.63
2023-01-03T10:57:46.377Z,37.70
2023-01-03T11:00:27.192Z,32.42
2023-01-03T11:02:59.400Z,30.95
2023-01-03T11:05:31.926Z,30.60
2023-01-03T11:08:02.897Z,30.60
2023-01-03T11:10:38.121Z,28.52
2023-01-03T11:13:24.247Z,29.83
2023-01-03T11:15:55.607Z,32.47
2023-01-03T11:18:25.499Z,28.77
2023-01-03T11:21:02.913Z,27.48
2023-01-03T11:24:02.498Z,27.42
2023-01-03T11:26:48.646Z,28.58
2023-01-03T11:29:40.355Z,24.77
2023-01-03T11:32:24.826Z,26.02
2023-01-03T11:35:24.544Z,24.77
2023-01-03T11:38:03.837Z,24.60
2023-01-03T11:40:41.041Z,23.58
2023-01-03T11:43:26.655Z,26.48
2023-01-03T11:46:18.508Z,24.15
2023-01-03T11:48:59.641Z,24.20
2023-01-03T11:51:37.009Z,24.60
2023-01-03T11:54:34.194Z,23.42
2023-01-03T11:57:11.443Z,24.98
2023-01-03T11:59:57.908Z,24.70
2023-01-03T12:02:57.183Z,24.02
2023-01-03T12:05:44.464Z,22.83
2023-01-03T12:08:48.028Z,24.13
2023-01-03T12:11:32.982Z,23.10
2023-01-03T12:14:09.053Z,24.08
2023-01-03T12:16:45.261Z,24.10
2023-01-03T12:19:26.622Z,23.60
2023-01-03T12:22:00.120Z,24.25
2023-01-03T12:24:37.177Z,23.65
2023-01-03T12:27:13.283Z,21.85
2023-01-03T12:29:50.378Z,22.73
2023-01-03T12:32:23.602Z,22.63
2023-01-03T12:34:57.818Z,23.50
2023-01-03T12:37:30.999Z,23.75
2023-01-03T12:40:02.696Z,21.83
2023-01-03T12:42:39.254Z,22.73
2023-01-03T12:45:34.008Z,24.02
2023-01-03T12:48:09.850Z,23.33
2023-01-03T12:50:44.106Z,22.27
2023-01-03T12:53:18.817Z,20.92
2023-01-03T12:56:01.103Z,22.17
2023-01-03T12:58:41.881Z,22.38
2023-01-03T13:01:15.815Z,21.52
2023-01-03T13:03:49.022Z,22.17
2023-01-03T13:06:21.819Z,21.73
2023-01-03T13:08:54.564Z,22.13
2023-01-03T13:11:27.407Z,22.75
2023-01-03T13:14:00.296Z,21.40
2023-01-03T13:16:46.299Z,20.77
2023-01-03T13:19:51.553Z,20.60
2023-01-03T13:22:58.118Z,21.70
2023-01-03T13:25:47.142Z,21.80
2023-01-03T13:28:33.121Z,21.35
2023-01-03T13:31:47.978Z,22.25
2023-01-03T13:34:33.493Z,21.98
2023-01-03T13:37:17.996Z,21.60
2023-01-03T13:40:14.375Z,21.60
2023-01-03T13:42:42.693Z,20.75
2023-01-03T13:45:56.930Z,20.88
2023-01-03T13:48:53.531Z,20.65
2023-01-03T13:51:36.953Z,21.38
2023-01-03T13:54:25.883Z,21.67
2023-01-03T13:57:04.159Z,22.65
2023-01-03T13:59:37.310Z,22.08
2023-01-03T14:02:44.615Z,21.95
2023-01-03T14:05:31.969Z,22.25
2023-01-03T14:08:33.366Z,21.38
2023-01-03T14:11:31.258Z,22.38
2023-01-03T14:14:05.953Z,22.75
2023-01-03T14:16:46.773Z,21.63
2023-01-03T14:19:22.819Z,22.35
2023-01-03T14:21:56.864Z,23.00
2023-01-03T14:24:29.708Z,23.17
2023-01-03T14:27:13.066Z,23.38
2023-01-03T14:29:50.361Z,22.58
2023-01-03T14:32:22.568Z,22.30
2023-01-03T14:34:51.252Z,24.02
2023-01-03T14:37:22.313Z,23.13
2023-01-03T14:39:56.751Z,24.33
2023-01-03T14:42:26.262Z,23.42
2023-01-03T14:44:57.833Z,23.35
2023-01-03T14:47:33.301Z,22.60
2023-01-03T14:50:02.311Z,22.80
2023-01-03T14:52:34.014Z,23.27
2023-01-03T14:55:07.521Z,22.67
2023-01-03T14:57:40.424Z,22.75
2023-01-03T15:00:13.526Z,22.13
2023-01-03T15:02:43.380Z,24.00
2023-01-03T15:05:26.332Z,23.80
2023-01-03T15:07:54.735Z,21.95
2023-01-03T15:10:32.825Z,23.40
2023-01-03T15:13:04.899Z,21.92
2023-01-03T15:15:38.457Z,22.33
2023-01-03T15:18:09.943Z,23.00
2023-01-03T15:20:40.469Z,22.85
2023-01-03T15:23:09.541Z,25.25
2023-01-03T15:25:42.301Z,23.90
2023-01-03T15:28:23.837Z,22.83
2023-01-03T15:30:53.064Z,23.60
2023-01-03T15:33:33.226Z,22.83
2023-01-03T15:36:06.302Z,22.88
2023-01-03T15:38:36.332Z,21.92
2023-01-03T15:41:39.513Z,23.27
2023-01-03T15:44:08.423Z,21.90
2023-01-03T15:46:36.888Z,21.38
2023-01-03T15:49:06.972Z,22.15
2023-01-03T15:51:35.109Z,22.75
2023-01-03T15:54:03.684Z,22.05
2023-01-03T15:56:38.935Z,21.67
2023-01-03T15:59:14.466Z,22.20
2023-01-03T16:01:43.004Z,23.77
2023-01-03T16:04:11.953Z,21.88
2023-01-03T16:06:40.106Z,21.38
2023-01-03T16:09:08.294Z,21.35
2023-01-03T16:11:38.246Z,21.92
2023-01-03T16:14:09.478Z,21.88
2023-01-03T16:16:41.442Z,22.42
2023-01-03T16:19:20.767Z,21.30
2023-01-03T16:22:09.452Z,20.15
2023-01-03T16:24:37.903Z,19.65
2023-01-03T16:27:15.100Z,21.55
2023-01-03T16:29:43.865Z,19.77
2023-01-03T16:32:19.812Z,19.13
2023-01-03T16:34:49.359Z,20.55
2023-01-03T16:37:22.347Z,20.42
2023-01-03T16:39:50.750Z,18.80
2023-01-03T16:42:27.468Z,19.52
2023-01-03T16:44:57.162Z,19.42
2023-01-03T16:47:28.971Z,19.10
2023-01-03T16:50:00.830Z,20.00
2023-01-03T16:52:34.170Z,19.30
2023-01-03T16:55:05.510Z,20.20
2023-01-03T16:57:35.297Z,19.85
2023-01-03T17:00:04.764Z,19.65
2023-01-03T17:02:35.324Z,20.42
2023-01-03T17:05:03.891Z,21.45
2023-01-03T17:07:32.234Z,20.77
2023-01-03T17:10:00.880Z,22.17
2023-01-03T17:12:29.145Z,20.58
2023-01-03T17:14:58.839Z,20.92
2023-01-03T17:17:29.160Z,21.40
2023-01-03T17:20:06.894Z,25.10
2023-01-03T17:22:35.265Z,22.05
2023-01-03T17:25:03.859Z,21.48
2023-01-03T17:27:33.559Z,21.48
2023-01-03T17:30:06.500Z,20.63
2023-01-03T17:32:35.413Z,20.88
2023-01-03T17:35:08.077Z,21.10
2023-01-03T17:38:05.750Z,21.98
2023-01-03T17:40:33.659Z,22.25
2023-01-03T17:43:03.054Z,21.25
2023-01-03T17:45:50.225Z,65.03
2023-01-03T17:48:35.622Z,108.43
2023-01-03T17:51:06.275Z,26.63
2023-01-03T17:53:34.466Z,23.05
2023-01-03T17:56:02.973Z,22.60
2023-01-03T17:58:34.258Z,22.60
2023-01-03T18:01:04.286Z,22.25
2023-01-03T18:03:35.375Z,21.83
2023-01-03T18:06:07.516Z,22.55
2023-01-03T18:08:40.537Z,22.05
2023-01-03T18:11:10.035Z,22.85
2023-01-03T18:13:39.041Z,21.85
2023-01-03T18:16:17.556Z,22.55
2023-01-03T18:18:46.399Z,23.15
2023-01-03T18:21:18.908Z,22.50
2023-01-03T18:23:47.519Z,22.73
2023-01-03T18:26:19.941Z,23.83
2023-01-03T18:28:48.188Z,24.13
2023-01-03T18:31:20.000Z,23.33
2023-01-03T18:33:49.255Z,24.10
2023-01-03T18:36:26.281Z,23.70
2023-01-03T18:39:04.501Z,22.90
2023-01-03T18:41:34.485Z,23.27
2023-01-03T18:44:02.881Z,24.13
2023-01-03T18:46:32.737Z,23.40
2023-01-03T18:49:00.844Z,23.38
2023-01-03T18:51:30.448Z,24.52
2023-01-03T18:54:00.030Z,22.80
2023-01-03T18:56:33.746Z,23.88
2023-01-03T18:59:06.166Z,23.15
2023-01-03T19:01:36.265Z,22.35
2023-01-03T19:04:04.636Z,22.30
2023-01-03T19:06:34.069Z,23.13
2023-01-03T19:09:04.188Z,23.85
2023-01-03T19:11:35.920Z,23.23
2023-01-03T19:14:07.717Z,23.70
2023-01-03T19:16:38.933Z,22.92
2023-01-03T19:19:08.141Z,23.92
2023-01-03T19:21:38.237Z,24.35
2023-01-03T19:24:13.224Z,23.55
2023-01-03T19:26:45.317Z,23.45
2023-01-03T19:29:21.969Z,22.67
2023-01-03T19:31:57.242Z,25.35
2023-01-03T19:34:27.516Z,23.50
2023-01-03T19:36:55.825Z,22.77
2023-01-03T19:39:26.211Z,23.50
2023-01-03T19:42:15.442Z,22.48
2023-01-03T19:44:44.121Z,21.85
2023-01-03T19:47:16.197Z,22.98
2023-01-03T19:49:47.263Z,22.40
2023-01-03T19:52:15.769Z,22.40
2023-01-03T19:54:43.948Z,21.38
2023-01-03T19:57:20.468Z,22.48
2023-01-03T19:59:52.559Z,22.75
2023-01-03T20:02:36.387Z,23.08
2023-01-03T20:05:08.507Z,22.65
2023-01-03T20:07:37.209Z,22.60
2023-01-03T20:10:05.745Z,22.92
2023-01-03T20:12:35.328Z,22.55
2023-01-03T20:15:07.186Z,22.23
2023-01-03T20:17:36.945Z,22.60
2023-01-03T20:20:05.630Z,22.90
2023-01-03T20:25:26.935Z,22.70
2023-01-03T20:27:56.097Z,21.90
2023-01-03T20:30:26.607Z,22.58
2023-01-03T20:32:56.561Z,21.88
2023-01-03T20:38:16.943Z,18.17
2023-01-03T20:40:45.233Z,21.95
2023-01-03T20:43:17.319Z,21.63
2023-01-03T20:45:46.796Z,22.23
2023-01-03T20:48:24.771Z,21.48
2023-01-03T20:50:53.926Z,22.00
2023-01-03T20:53:24.066Z,21.77
2023-01-03T20:55:53.673Z,23.42
2023-01-03T20:58:25.341Z,22.35
2023-01-03T21:00:59.828Z,23.08
2023-01-03T21:03:37.126Z,22.35
2023-01-03T21:06:18.815Z,22.20
2023-01-03T21:08:56.562Z,22.52
2023-01-03T21:11:27.432Z,22.10
2023-01-03T21:13:56.687Z,22.02
2023-01-03T21:16:31.655Z,22.58
2023-01-03T21:19:06.957Z,22.25
2023-01-03T21:21:35.916Z,21.90
2023-01-03T21:24:04.462Z,23.20
2023-01-03T21:26:33.738Z,24.20
2023-01-03T21:29:02.666Z,21.85
2023-01-03T21:31:31.000Z,22.45
2023-01-03T21:33:59.209Z,22.70
2023-01-03T21:36:31.324Z,22.88
2023-01-03T21:39:00.332Z,22.45
2023-01-03T21:41:30.511Z,22.42
2023-01-03T21:43:59.778Z,22.75
2023-01-03T21:46:28.730Z,22.13
2023-01-03T21:48:58.207Z,22.80
2023-01-03T21:51:38.445Z,22.50
2023-01-03T21:54:08.667Z,23.08
2023-01-03T21:56:45.635Z,22.85
2023-01-03T21:59:14.938Z,23.10
2023-01-03T22:02:02.171Z,23.48
2023-01-03T22:04:30.760Z,23.45
2023-01-03T22:07:02.072Z,23.35
2023-01-03T22:09:49.743Z,23.42
2023-01-03T22:12:18.194Z,23.35
2023-01-03T22:14:46.786Z,23.38
2023-01-03T22:17:15.398Z,20.98
2023-01-03T22:19:43.717Z,21.85
2023-01-03T22:22:13.658Z,21.05
2023-01-03T22:24:41.860Z,21.48
2023-01-03T22:27:10.164Z,21.38
2023-01-03T22:29:38.224Z,21.63
2023-01-03T22:32:06.851Z,21.67
2023-01-03T22:34:35.038Z,21.70
2023-01-03T22:37:03.233Z,22.25
2023-01-03T22:39:32.856Z,21.88
2023-01-03T22:42:00.947Z,21.27
2023-01-03T22:44:29.151Z,21.83
2023-01-03T22:46:57.405Z,22.40
2023-01-03T22:49:25.453Z,22.42
2023-01-03T22:51:53.428Z,22.10
2023-01-03T22:54:21.537Z,23.15
2023-01-03T22:56:51.718Z,22.05
2023-01-03T22:59:19.895Z,22.23
2023-01-03T23:01:48.004Z,21.52
2023-01-03T23:04:20.640Z,22.02
2023-01-03T23:06:48.810Z,21.10
2023-01-03T23:09:17.041Z,20.40
2023-01-03T23:12:07.453Z,20.83
2023-01-03T23:14:37.141Z,21.73
2023-01-03T23:17:19.387Z,20.70
2023-01-03T23:19:47.774Z,20.05
2023-01-03T23:22:16.080Z,19.92
2023-01-03T23:24:44.089Z,19.45
2023-01-03T23:27:12.139Z,19.75
2023-01-03T23:29:41.776Z,19.30
2023-01-03T23:32:10.002Z,19.27
2023-01-03T23:34:38.325Z,18.63
2023-01-03T23:37:06.478Z,19.45
2023-01-03T23:39:35.293Z,19.05
2023-01-03T23:42:03.376Z,19.38
2023-01-03T23:44:32.794Z,18.35
2023-01-03T23:47:07.660Z,17.92
2023-01-03T23:49:39.359Z,17.58
2023-01-03T23:52:10.216Z,17.58
2023-01-03T23:54:38.319Z,17.55
2023-01-03T23:57:09.083Z,18.08
2023-01-03T23:59:37.235Z,16.90
